GLG1638 SEGU-SEGS
Flight info
| Callsign | GLG1638 |
|---|---|
| Flight time | N/A |
| Altitude | 34000 |
| Route | ASOSI3A ASOSI UW17 SCV |
| Aircraft | A320/M-SDE3FGHIRWY/LB1 |
Departure
| Time | 2026-04-25 17:25 |
|---|---|
| Airport | José Joaquín de Olmedo International Airport (SEGU) |
Arrival
| Time | N/A |
|---|---|
| Airport | Seymour Galapagos Ecological Airport (SEGS) |
| Time | Latitude | Longitude | Altitude | Speed | Heading |
|---|---|---|---|---|---|
| 2026-04-25 17:04 | -2.15103 | -79.88455 | 29 ft | 0 kts | 300° |
| 2026-04-25 17:18 | -2.15110 | -79.88444 | 29 ft | 2 kts | 303° |
| 2026-04-25 17:18 | -2.15119 | -79.88430 | 29 ft | 2 kts | 307° |
| 2026-04-25 17:18 | -2.15130 | -79.88417 | 29 ft | 2 kts | 319° |
| 2026-04-25 17:18 | -2.15144 | -79.88408 | 29 ft | 2 kts | 0° |
| 2026-04-25 17:19 | -2.15159 | -79.88411 | 29 ft | 1 kts | 30° |
| 2026-04-25 17:19 | -2.15162 | -79.88413 | 29 ft | 0 kts | 29° |
| 2026-04-25 17:19 | -2.15161 | -79.88412 | 29 ft | 1 kts | 29° |
| 2026-04-25 17:20 | -2.15160 | -79.88407 | 29 ft | 1 kts | 76° |
| 2026-04-25 17:20 | -2.15180 | -79.88372 | 29 ft | 9 kts | 119° |
| 2026-04-25 17:20 | -2.15216 | -79.88307 | 28 ft | 12 kts | 119° |
| 2026-04-25 17:20 | -2.15196 | -79.88239 | 28 ft | 11 kts | 30° |
| 2026-04-25 17:21 | -2.15128 | -79.88201 | 29 ft | 11 kts | 30° |
| 2026-04-25 17:21 | -2.15059 | -79.88161 | 29 ft | 11 kts | 30° |
| 2026-04-25 17:21 | -2.15000 | -79.88127 | 29 ft | 8 kts | 30° |
| 2026-04-25 17:21 | -2.14960 | -79.88104 | 29 ft | 5 kts | 30° |
| 2026-04-25 17:22 | -2.14927 | -79.88085 | 29 ft | 8 kts | 30° |
| 2026-04-25 17:22 | -2.14906 | -79.88073 | 29 ft | 12 kts | 30° |
| 2026-04-25 17:22 | -2.14800 | -79.88014 | 29 ft | 14 kts | 30° |
| 2026-04-25 17:22 | -2.14716 | -79.87963 | 29 ft | 15 kts | 31° |
| 2026-04-25 17:23 | -2.14660 | -79.87910 | 28 ft | 8 kts | 66° |
| 2026-04-25 17:23 | -2.14647 | -79.87869 | 28 ft | 5 kts | 72° |
| 2026-04-25 17:23 | -2.14633 | -79.87816 | 28 ft | 11 kts | 79° |
| 2026-04-25 17:23 | -2.14663 | -79.87760 | 28 ft | 8 kts | 164° |
| 2026-04-25 17:24 | -2.14711 | -79.87772 | 27 ft | 6 kts | 209° |
| 2026-04-25 17:24 | -2.14714 | -79.87774 | 27 ft | 0 kts | 211° |
| 2026-04-25 17:25 | -2.14817 | -79.87834 | 28 ft | 50 kts | 209° |
| 2026-04-25 17:25 | -2.15328 | -79.88127 | 27 ft | 117 kts | 210° |
| 2026-04-25 17:25 | -2.16208 | -79.88632 | 45 ft | 167 kts | 208° |
| 2026-04-25 17:25 | -2.17221 | -79.89193 | 651 ft | 164 kts | 208° |
| 2026-04-25 17:26 | -2.18207 | -79.89743 | 1300 ft | 161 kts | 209° |
| 2026-04-25 17:26 | -2.19253 | -79.90336 | 1672 ft | 179 kts | 209° |
| 2026-04-25 17:26 | -2.20390 | -79.90979 | 2005 ft | 197 kts | 209° |
| 2026-04-25 17:26 | -2.21462 | -79.91920 | 2263 ft | 220 kts | 242° |
| 2026-04-25 17:27 | -2.21814 | -79.93514 | 2553 ft | 244 kts | 269° |
| 2026-04-25 17:27 | -2.21742 | -79.95329 | 3056 ft | 262 kts | 275° |
| 2026-04-25 17:27 | -2.21556 | -79.97170 | 3834 ft | 268 kts | 277° |
| 2026-04-25 17:27 | -2.21488 | -79.97795 | 4113 ft | 269 kts | 277° |
| 2026-04-25 17:28 | -2.21177 | -80.00971 | 5491 ft | 276 kts | 275° |
| 2026-04-25 17:28 | -2.21025 | -80.02928 | 5901 ft | 278 kts | 274° |
| 2026-04-25 17:28 | -2.20901 | -80.04869 | 6644 ft | 281 kts | 274° |
| 2026-04-25 17:28 | -2.20791 | -80.06824 | 7398 ft | 284 kts | 273° |
| 2026-04-25 17:29 | -2.20683 | -80.08896 | 8160 ft | 288 kts | 272° |
| 2026-04-25 17:29 | -2.20583 | -80.10916 | 8882 ft | 292 kts | 272° |
| 2026-04-25 17:29 | -2.20484 | -80.12981 | 9598 ft | 297 kts | 271° |
| 2026-04-25 17:29 | -2.20450 | -80.15062 | 10178 ft | 308 kts | 268° |
| 2026-04-25 17:30 | -2.20539 | -80.17288 | 10402 ft | 331 kts | 266° |
| 2026-04-25 17:30 | -2.20657 | -80.19642 | 10748 ft | 345 kts | 266° |
| 2026-04-25 17:30 | -2.20780 | -80.22056 | 11322 ft | 349 kts | 266° |
| 2026-04-25 17:30 | -2.20908 | -80.24528 | 11981 ft | 352 kts | 266° |
| 2026-04-25 17:31 | -2.21035 | -80.26971 | 12642 ft | 353 kts | 266° |
| 2026-04-25 17:31 | -2.21162 | -80.29417 | 13321 ft | 354 kts | 266° |
| 2026-04-25 17:31 | -2.21291 | -80.31894 | 13978 ft | 356 kts | 266° |
| 2026-04-25 17:31 | -2.21421 | -80.34367 | 14593 ft | 357 kts | 266° |
| 2026-04-25 17:32 | -2.21505 | -80.36103 | 15036 ft | 357 kts | 268° |
| 2026-04-25 17:32 | -2.21571 | -80.38623 | 15675 ft | 357 kts | 269° |
| 2026-04-25 17:32 | -2.21632 | -80.41172 | 16317 ft | 358 kts | 269° |
| 2026-04-25 17:32 | -2.21695 | -80.43657 | 16953 ft | 358 kts | 269° |
| 2026-04-25 17:33 | -2.21761 | -80.46142 | 17605 ft | 357 kts | 269° |
| 2026-04-25 17:33 | -2.21828 | -80.48622 | 18266 ft | 356 kts | 269° |
| 2026-04-25 17:33 | -2.21900 | -80.51092 | 18841 ft | 355 kts | 269° |
| 2026-04-25 17:33 | -2.21980 | -80.53585 | 19441 ft | 353 kts | 269° |
| 2026-04-25 17:34 | -2.22064 | -80.55995 | 20027 ft | 351 kts | 269° |
| 2026-04-25 17:34 | -2.22154 | -80.58458 | 20648 ft | 348 kts | 269° |
| 2026-04-25 17:34 | -2.22242 | -80.60859 | 21242 ft | 346 kts | 269° |
| 2026-04-25 17:34 | -2.22335 | -80.63354 | 21064 ft | 371 kts | 269° |
| 2026-04-25 17:35 | -2.22430 | -80.66002 | 20936 ft | 392 kts | 269° |
| 2026-04-25 17:35 | -2.22528 | -80.68769 | 20968 ft | 404 kts | 269° |
| 2026-04-25 17:35 | -2.22627 | -80.71595 | 20970 ft | 408 kts | 269° |
| 2026-04-25 17:35 | -2.22727 | -80.74467 | 20972 ft | 409 kts | 269° |
| 2026-04-25 17:36 | -2.22825 | -80.77311 | 20976 ft | 409 kts | 269° |
| 2026-04-25 17:36 | -2.22923 | -80.80156 | 20976 ft | 409 kts | 269° |
| 2026-04-25 17:36 | -2.22985 | -80.82997 | 20976 ft | 409 kts | 274° |
| 2026-04-25 17:36 | -2.22416 | -80.85761 | 20979 ft | 405 kts | 293° |
| 2026-04-25 17:37 | -2.20999 | -80.88167 | 20984 ft | 402 kts | 312° |
| 2026-04-25 17:37 | -2.18934 | -80.90008 | 20528 ft | 397 kts | 329° |
| 2026-04-25 17:37 | -2.16337 | -80.91095 | 19886 ft | 396 kts | 349° |
| 2026-04-25 17:37 | -2.13600 | -80.91245 | 19273 ft | 396 kts | 8° |
| 2026-04-25 17:38 | -2.10965 | -80.90482 | 18664 ft | 397 kts | 26° |
| 2026-04-25 17:38 | -2.09416 | -80.89509 | 18265 ft | 398 kts | 39° |
| 2026-04-25 17:38 | -2.07120 | -80.86644 | 17330 ft | 393 kts | 65° |
| 2026-04-25 17:38 | -2.06183 | -80.84125 | 16646 ft | 381 kts | 71° |
| 2026-04-25 17:39 | -2.05370 | -80.81634 | 15940 ft | 373 kts | 72° |
| 2026-04-25 17:39 | -2.04578 | -80.79196 | 15283 ft | 364 kts | 72° |
| 2026-04-25 17:39 | -2.03999 | -80.76812 | 15031 ft | 344 kts | 84° |
| 2026-04-25 17:39 | -2.03756 | -80.74462 | 14456 ft | 336 kts | 84° |
| 2026-04-25 17:40 | -2.03523 | -80.72152 | 13842 ft | 332 kts | 84° |
| 2026-04-25 17:40 | -2.03295 | -80.69844 | 13159 ft | 328 kts | 85° |
| 2026-04-25 17:40 | -2.03075 | -80.67578 | 12480 ft | 324 kts | 85° |
| 2026-04-25 17:40 | -2.02858 | -80.65353 | 11821 ft | 321 kts | 85° |
| 2026-04-25 17:41 | -2.02644 | -80.63146 | 11176 ft | 317 kts | 85° |
| 2026-04-25 17:41 | -2.02428 | -80.60962 | 10540 ft | 313 kts | 85° |
| 2026-04-25 17:41 | -2.02208 | -80.58749 | 9903 ft | 310 kts | 85° |
| 2026-04-25 17:41 | -2.01999 | -80.56617 | 9158 ft | 308 kts | 85° |
| 2026-04-25 17:42 | -2.01790 | -80.54486 | 8413 ft | 306 kts | 84° |
| 2026-04-25 17:42 | -2.01214 | -80.48589 | 6991 ft | 284 kts | 84° |
| 2026-04-25 17:43 | -2.01028 | -80.46667 | 6924 ft | 266 kts | 84° |
| 2026-04-25 17:43 | -2.00860 | -80.44919 | 6938 ft | 244 kts | 84° |
| 2026-04-25 17:43 | -2.00702 | -80.43280 | 6929 ft | 228 kts | 84° |
| 2026-04-25 17:43 | -2.00550 | -80.41725 | 6937 ft | 222 kts | 83° |
| 2026-04-25 17:44 | -2.00397 | -80.40178 | 6930 ft | 225 kts | 83° |
| 2026-04-25 17:44 | -2.00244 | -80.38616 | 6934 ft | 226 kts | 84° |
| 2026-04-25 17:44 | -2.00092 | -80.37053 | 6938 ft | 226 kts | 84° |
| 2026-04-25 17:44 | -1.99941 | -80.35493 | 6930 ft | 226 kts | 83° |
| 2026-04-25 17:45 | -1.99786 | -80.33906 | 6935 ft | 225 kts | 84° |
| 2026-04-25 17:45 | -1.99737 | -80.33399 | 6936 ft | 226 kts | 83° |
| 2026-04-25 17:45 | -1.99481 | -80.30781 | 6930 ft | 226 kts | 84° |
| 2026-04-25 17:45 | -1.99320 | -80.29143 | 6936 ft | 249 kts | 84° |
| 2026-04-25 17:46 | -1.99147 | -80.27397 | 6927 ft | 256 kts | 84° |
| 2026-04-25 17:46 | -1.98969 | -80.25615 | 6922 ft | 257 kts | 84° |
| 2026-04-25 17:46 | -1.98795 | -80.23836 | 6923 ft | 257 kts | 84° |
| 2026-04-25 17:46 | -1.98622 | -80.22060 | 6919 ft | 258 kts | 84° |
| 2026-04-25 17:47 | -1.98448 | -80.20273 | 6922 ft | 258 kts | 84° |
| 2026-04-25 17:47 | -1.98276 | -80.18494 | 6919 ft | 258 kts | 83° |
| 2026-04-25 17:47 | -1.98100 | -80.16696 | 6657 ft | 259 kts | 83° |
| 2026-04-25 17:47 | -1.97922 | -80.14893 | 6335 ft | 257 kts | 83° |
| 2026-04-25 17:48 | -1.97577 | -80.11346 | 5651 ft | 254 kts | 83° |
| 2026-04-25 17:48 | -1.97404 | -80.09565 | 5303 ft | 258 kts | 83° |
| 2026-04-25 17:48 | -1.97214 | -80.07646 | 4991 ft | 290 kts | 83° |
| 2026-04-25 17:49 | -1.97014 | -80.05607 | 4928 ft | 296 kts | 83° |
| 2026-04-25 17:49 | -1.96814 | -80.03556 | 4936 ft | 298 kts | 83° |
| 2026-04-25 17:49 | -1.96614 | -80.01490 | 4936 ft | 298 kts | 84° |
| 2026-04-25 17:49 | -1.96412 | -79.99426 | 4938 ft | 298 kts | 83° |
| 2026-04-25 17:50 | -1.96211 | -79.97360 | 4943 ft | 299 kts | 83° |
| 2026-04-25 17:50 | -1.96009 | -79.95279 | 4949 ft | 297 kts | 83° |
| 2026-04-25 17:50 | -1.95808 | -79.93225 | 4936 ft | 297 kts | 84° |
| 2026-04-25 17:50 | -1.95483 | -79.91187 | 4934 ft | 297 kts | 72° |
| 2026-04-25 17:51 | -1.94588 | -79.89349 | 4934 ft | 282 kts | 53° |
| 2026-04-25 17:51 | -1.93283 | -79.87991 | 4938 ft | 263 kts | 36° |
| 2026-04-25 17:51 | -1.91760 | -79.87125 | 4933 ft | 244 kts | 20° |
| 2026-04-25 17:51 | -1.90139 | -79.86624 | 4933 ft | 240 kts | 15° |
| 2026-04-25 17:52 | -1.88536 | -79.86155 | 4933 ft | 239 kts | 15° |
| 2026-04-25 17:52 | -1.88018 | -79.86003 | 4932 ft | 239 kts | 15° |
| 2026-04-25 17:52 | -1.85372 | -79.85262 | 5791 ft | 237 kts | 9° |
| 2026-04-25 17:52 | -1.83737 | -79.85206 | 6621 ft | 236 kts | 352° |
| 2026-04-25 17:53 | -1.82161 | -79.85659 | 7452 ft | 235 kts | 333° |
| 2026-04-25 17:53 | -1.80834 | -79.86585 | 8285 ft | 232 kts | 314° |
| 2026-04-25 17:53 | -1.79894 | -79.87860 | 9152 ft | 225 kts | 296° |
| 2026-04-25 17:53 | -1.79412 | -79.89293 | 9997 ft | 211 kts | 278° |
| 2026-04-25 17:54 | -1.79361 | -79.90688 | 10753 ft | 192 kts | 263° |
| 2026-04-25 17:54 | -1.79669 | -79.92014 | 11044 ft | 198 kts | 246° |
| 2026-04-25 17:54 | -1.80344 | -79.93220 | 11333 ft | 200 kts | 230° |
| 2026-04-25 17:54 | -1.81323 | -79.94203 | 11652 ft | 201 kts | 214° |
| 2026-04-25 17:55 | -1.82536 | -79.94884 | 11984 ft | 201 kts | 198° |
| 2026-04-25 17:55 | -1.83907 | -79.95207 | 12317 ft | 200 kts | 181° |
| 2026-04-25 17:55 | -1.84853 | -79.95239 | 12535 ft | 201 kts | 182° |
| 2026-04-25 17:55 | -1.86260 | -79.95463 | 12874 ft | 203 kts | 191° |
| 2026-04-25 17:56 | -1.87658 | -79.95656 | 13197 ft | 202 kts | 170° |
| 2026-04-25 17:56 | -1.88953 | -79.95184 | 13504 ft | 200 kts | 139° |
| 2026-04-25 17:56 | -1.89832 | -79.94101 | 13831 ft | 200 kts | 109° |
| 2026-04-25 17:56 | -1.90034 | -79.92689 | 13926 ft | 218 kts | 78° |
| 2026-04-25 17:57 | -1.89345 | -79.91249 | 13942 ft | 244 kts | 46° |
| 2026-04-25 17:57 | -1.88048 | -79.89992 | 13931 ft | 272 kts | 44° |
| 2026-04-25 17:57 | -1.86647 | -79.88672 | 13922 ft | 280 kts | 44° |
| 2026-04-25 17:57 | -1.85705 | -79.87786 | 13919 ft | 282 kts | 44° |
| 2026-04-25 17:58 | -1.83796 | -79.85984 | 13921 ft | 283 kts | 44° |
| 2026-04-25 17:58 | -1.82366 | -79.84628 | 13919 ft | 283 kts | 44° |
| 2026-04-25 17:58 | -1.80893 | -79.83225 | 13918 ft | 306 kts | 44° |
| 2026-04-25 17:58 | -1.79280 | -79.81687 | 13917 ft | 333 kts | 44° |
| 2026-04-25 17:59 | -1.77551 | -79.80041 | 13916 ft | 351 kts | 44° |
| 2026-04-25 17:59 | -1.75767 | -79.78345 | 13915 ft | 356 kts | 44° |
| 2026-04-25 17:59 | -1.73949 | -79.76617 | 13916 ft | 357 kts | 44° |
| 2026-04-25 17:59 | -1.72153 | -79.74905 | 13913 ft | 357 kts | 44° |
| 2026-04-25 18:00 | -1.70353 | -79.73189 | 13917 ft | 357 kts | 44° |
| 2026-04-25 18:00 | -1.68555 | -79.71474 | 13937 ft | 357 kts | 44° |
| 2026-04-25 18:00 | -1.66761 | -79.69767 | 13919 ft | 357 kts | 44° |
| 2026-04-25 18:00 | -1.64959 | -79.68052 | 13923 ft | 357 kts | 44° |
| 2026-04-25 18:01 | -1.63159 | -79.66338 | 13921 ft | 357 kts | 44° |
| 2026-04-25 18:01 | -1.61363 | -79.64629 | 13929 ft | 357 kts | 44° |
| 2026-04-25 18:01 | -1.59561 | -79.62917 | 13926 ft | 357 kts | 44° |
| 2026-04-25 18:01 | -1.57784 | -79.61232 | 13918 ft | 346 kts | 44° |
| 2026-04-25 18:02 | -1.56082 | -79.59616 | 13928 ft | 330 kts | 44° |
| 2026-04-25 18:02 | -1.54455 | -79.58065 | 13929 ft | 316 kts | 44° |
| 2026-04-25 18:02 | -1.52909 | -79.56573 | 13928 ft | 302 kts | 48° |
| 2026-04-25 18:02 | -1.51790 | -79.54876 | 13931 ft | 286 kts | 69° |
| 2026-04-25 18:03 | -1.51371 | -79.52958 | 13937 ft | 276 kts | 90° |
| 2026-04-25 18:03 | -1.51652 | -79.51053 | 13945 ft | 274 kts | 110° |
| 2026-04-25 18:03 | -1.52570 | -79.49390 | 13943 ft | 275 kts | 130° |
| 2026-04-25 18:03 | -1.54018 | -79.48136 | 13947 ft | 276 kts | 149° |
| 2026-04-25 18:04 | -1.55817 | -79.47455 | 13947 ft | 277 kts | 169° |
| 2026-04-25 18:04 | -1.57766 | -79.47450 | 13948 ft | 279 kts | 191° |
| 2026-04-25 18:04 | -1.59609 | -79.48151 | 13949 ft | 282 kts | 212° |
| 2026-04-25 18:04 | -1.61101 | -79.49416 | 13949 ft | 284 kts | 225° |
| 2026-04-25 18:05 | -1.62447 | -79.50871 | 13937 ft | 285 kts | 228° |
| 2026-04-25 18:05 | -1.63740 | -79.52370 | 13939 ft | 285 kts | 229° |
| 2026-04-25 18:05 | -1.65016 | -79.53883 | 13937 ft | 285 kts | 229° |
| 2026-04-25 18:05 | -1.66308 | -79.55419 | 13934 ft | 285 kts | 229° |
| 2026-04-25 18:06 | -1.67480 | -79.57006 | 13927 ft | 285 kts | 243° |
| 2026-04-25 18:06 | -1.68072 | -79.58890 | 13928 ft | 285 kts | 264° |
| 2026-04-25 18:06 | -1.67966 | -79.60854 | 13926 ft | 285 kts | 285° |
| 2026-04-25 18:06 | -1.67156 | -79.62676 | 13922 ft | 284 kts | 307° |
| 2026-04-25 18:07 | -1.65768 | -79.64061 | 13923 ft | 282 kts | 328° |
| 2026-04-25 18:07 | -1.64002 | -79.64854 | 13923 ft | 280 kts | 349° |
| 2026-04-25 18:07 | -1.62075 | -79.64969 | 13922 ft | 277 kts | 10° |
| 2026-04-25 18:07 | -1.60247 | -79.64410 | 13923 ft | 275 kts | 30° |
| 2026-04-25 18:08 | -1.58725 | -79.63273 | 13923 ft | 274 kts | 46° |
| 2026-04-25 18:08 | -1.57408 | -79.61891 | 13927 ft | 275 kts | 49° |
| 2026-04-25 18:08 | -1.56152 | -79.60448 | 13931 ft | 275 kts | 50° |
| 2026-04-25 18:08 | -1.54919 | -79.58986 | 13932 ft | 275 kts | 51° |
| 2026-04-25 18:09 | -1.53685 | -79.57519 | 13931 ft | 275 kts | 51° |
| 2026-04-25 18:09 | -1.52520 | -79.56015 | 13928 ft | 274 kts | 63° |
| 2026-04-25 18:09 | -1.51963 | -79.54216 | 13938 ft | 272 kts | 87° |
| 2026-04-25 18:09 | -1.51958 | -79.53580 | 13938 ft | 272 kts | 96° |
| 2026-04-25 18:10 | -1.53261 | -79.50755 | 13942 ft | 273 kts | 136° |
| 2026-04-25 18:10 | -1.54865 | -79.49760 | 13945 ft | 275 kts | 161° |
| 2026-04-25 18:10 | -1.56768 | -79.49549 | 13945 ft | 278 kts | 187° |
| 2026-04-25 18:10 | -1.58590 | -79.50184 | 13944 ft | 281 kts | 213° |
| 2026-04-25 18:11 | -1.60027 | -79.51507 | 13946 ft | 283 kts | 227° |
| 2026-04-25 18:11 | -1.61337 | -79.52991 | 13939 ft | 284 kts | 229° |
| 2026-04-25 18:11 | -1.62638 | -79.54508 | 13935 ft | 284 kts | 229° |
| 2026-04-25 18:11 | -1.63923 | -79.56012 | 13931 ft | 284 kts | 229° |
| 2026-04-25 18:12 | -1.65118 | -79.57579 | 13924 ft | 285 kts | 243° |
| 2026-04-25 18:12 | -1.65620 | -79.59474 | 13925 ft | 285 kts | 270° |
| 2026-04-25 18:12 | -1.65234 | -79.61400 | 13924 ft | 284 kts | 297° |
| 2026-04-25 18:12 | -1.64510 | -79.62511 | 13922 ft | 282 kts | 315° |
| 2026-04-25 18:13 | -1.62903 | -79.63637 | 13925 ft | 280 kts | 341° |
| 2026-04-25 18:13 | -1.61034 | -79.63943 | 13926 ft | 277 kts | 6° |
| 2026-04-25 18:13 | -1.59203 | -79.63416 | 13927 ft | 275 kts | 32° |
| 2026-04-25 18:14 | -1.56481 | -79.60775 | 13930 ft | 275 kts | 50° |
| 2026-04-25 18:14 | -1.55233 | -79.59322 | 13929 ft | 275 kts | 50° |
| 2026-04-25 18:14 | -1.53994 | -79.57863 | 13932 ft | 275 kts | 50° |
| 2026-04-25 18:14 | -1.52760 | -79.56377 | 13932 ft | 275 kts | 57° |
| 2026-04-25 18:15 | -1.52023 | -79.54640 | 13935 ft | 273 kts | 82° |
| 2026-04-25 18:15 | -1.52092 | -79.52763 | 13942 ft | 272 kts | 106° |
| 2026-04-25 18:15 | -1.52948 | -79.51090 | 13944 ft | 273 kts | 131° |
| 2026-04-25 18:15 | -1.54438 | -79.49935 | 13944 ft | 275 kts | 155° |
| 2026-04-25 18:16 | -1.56303 | -79.49521 | 13944 ft | 278 kts | 181° |
| 2026-04-25 18:16 | -1.58183 | -79.49953 | 13945 ft | 280 kts | 206° |
| 2026-04-25 18:16 | -1.61029 | -79.52617 | 13939 ft | 284 kts | 228° |
| 2026-04-25 18:17 | -1.62320 | -79.54114 | 13936 ft | 284 kts | 229° |
| 2026-04-25 18:17 | -1.63602 | -79.55620 | 13932 ft | 284 kts | 229° |
| 2026-04-25 18:17 | -1.64873 | -79.57170 | 13928 ft | 285 kts | 237° |
| 2026-04-25 18:17 | -1.65578 | -79.59001 | 13930 ft | 285 kts | 264° |
| 2026-04-25 18:18 | -1.65401 | -79.60972 | 13924 ft | 284 kts | 291° |
| 2026-04-25 18:18 | -1.64361 | -79.62662 | 13926 ft | 282 kts | 317° |
| 2026-04-25 18:18 | -1.62724 | -79.63699 | 13925 ft | 280 kts | 343° |
| 2026-04-25 18:18 | -1.60818 | -79.63924 | 13926 ft | 277 kts | 9° |
| 2026-04-25 18:19 | -1.59018 | -79.63309 | 13924 ft | 274 kts | 34° |
| 2026-04-25 18:19 | -1.57609 | -79.62042 | 13930 ft | 274 kts | 48° |
| 2026-04-25 18:19 | -1.56332 | -79.60614 | 13927 ft | 275 kts | 50° |
| 2026-04-25 18:19 | -1.55088 | -79.59164 | 13930 ft | 275 kts | 50° |
| 2026-04-25 18:20 | -1.53853 | -79.57710 | 13935 ft | 275 kts | 50° |
| 2026-04-25 18:20 | -1.52650 | -79.56222 | 13930 ft | 274 kts | 59° |
| 2026-04-25 18:20 | -1.51997 | -79.54457 | 13937 ft | 273 kts | 84° |
| 2026-04-25 18:20 | -1.52139 | -79.52582 | 13940 ft | 272 kts | 108° |
| 2026-04-25 18:21 | -1.53060 | -79.50945 | 13945 ft | 273 kts | 133° |
| 2026-04-25 18:21 | -1.54605 | -79.49847 | 13944 ft | 275 kts | 158° |
| 2026-04-25 18:21 | -1.56508 | -79.49514 | 13944 ft | 278 kts | 184° |
| 2026-04-25 18:21 | -1.58365 | -79.50036 | 13944 ft | 281 kts | 210° |
| 2026-04-25 18:22 | -1.59858 | -79.51305 | 13948 ft | 283 kts | 227° |
| 2026-04-25 18:22 | -1.60279 | -79.51769 | 13945 ft | 284 kts | 227° |
| 2026-04-25 18:22 | -1.62448 | -79.54263 | 13937 ft | 284 kts | 229° |
| 2026-04-25 18:22 | -1.63733 | -79.55768 | 13933 ft | 284 kts | 229° |
| 2026-04-25 18:23 | -1.64986 | -79.57327 | 13924 ft | 285 kts | 239° |
| 2026-04-25 18:23 | -1.65614 | -79.59187 | 13928 ft | 285 kts | 266° |
| 2026-04-25 18:23 | -1.65359 | -79.61130 | 13926 ft | 284 kts | 293° |
| 2026-04-25 18:23 | -1.64284 | -79.62753 | 13925 ft | 282 kts | 319° |
| 2026-04-25 18:24 | -1.62614 | -79.63743 | 13925 ft | 280 kts | 345° |
| 2026-04-25 18:24 | -1.60701 | -79.63914 | 13928 ft | 277 kts | 11° |
| 2026-04-25 18:24 | -1.58920 | -79.63248 | 13925 ft | 275 kts | 36° |
| 2026-04-25 18:24 | -1.57528 | -79.61950 | 13925 ft | 274 kts | 49° |
| 2026-04-25 18:25 | -1.56257 | -79.60520 | 13929 ft | 275 kts | 50° |
| 2026-04-25 18:25 | -1.54998 | -79.59051 | 13935 ft | 275 kts | 50° |
| 2026-04-25 18:25 | -1.53759 | -79.57591 | 13930 ft | 275 kts | 51° |
| 2026-04-25 18:25 | -1.52577 | -79.56096 | 13926 ft | 274 kts | 62° |
| 2026-04-25 18:26 | -1.51983 | -79.54307 | 13936 ft | 273 kts | 86° |
| 2026-04-25 18:26 | -1.52191 | -79.52443 | 13940 ft | 272 kts | 110° |
| 2026-04-25 18:26 | -1.53174 | -79.50828 | 13940 ft | 274 kts | 135° |
| 2026-04-25 18:26 | -1.54749 | -79.49787 | 13946 ft | 276 kts | 160° |
| 2026-04-25 18:27 | -1.56644 | -79.49521 | 13945 ft | 278 kts | 185° |
| 2026-04-25 18:27 | -1.58481 | -79.50104 | 13943 ft | 281 kts | 211° |
| 2026-04-25 18:27 | -1.59943 | -79.51397 | 13946 ft | 283 kts | 227° |
| 2026-04-25 18:27 | -1.61273 | -79.52890 | 13941 ft | 284 kts | 228° |
| 2026-04-25 18:28 | -1.62559 | -79.54387 | 13936 ft | 284 kts | 229° |
| 2026-04-25 18:28 | -1.63846 | -79.55897 | 13931 ft | 284 kts | 229° |
| 2026-04-25 18:28 | -1.65059 | -79.57445 | 13927 ft | 285 kts | 241° |
| 2026-04-25 18:29 | -1.65303 | -79.61285 | 13925 ft | 284 kts | 295° |
| 2026-04-25 18:29 | -1.64172 | -79.62871 | 13927 ft | 282 kts | 321° |
| 2026-04-25 18:30 | -1.58774 | -79.63137 | 13927 ft | 275 kts | 39° |
| 2026-04-25 18:30 | -1.57410 | -79.61809 | 13928 ft | 274 kts | 49° |
| 2026-04-25 18:30 | -1.56147 | -79.60384 | 13928 ft | 275 kts | 50° |
| 2026-04-25 18:30 | -1.54901 | -79.58931 | 13932 ft | 275 kts | 50° |
| 2026-04-25 18:31 | -1.53661 | -79.57475 | 13932 ft | 275 kts | 50° |
| 2026-04-25 18:31 | -1.52494 | -79.55963 | 13927 ft | 274 kts | 63° |
| 2026-04-25 18:31 | -1.51956 | -79.54160 | 13940 ft | 272 kts | 88° |
| 2026-04-25 18:31 | -1.52231 | -79.52310 | 13939 ft | 272 kts | 112° |
| 2026-04-25 18:32 | -1.53290 | -79.50717 | 13944 ft | 274 kts | 137° |
| 2026-04-25 18:32 | -1.54913 | -79.49735 | 13944 ft | 276 kts | 162° |
| 2026-04-25 18:32 | -1.56807 | -79.49544 | 13945 ft | 278 kts | 187° |
| 2026-04-25 18:32 | -1.58628 | -79.50198 | 13944 ft | 281 kts | 213° |
| 2026-04-25 18:33 | -1.60081 | -79.51546 | 13943 ft | 283 kts | 227° |
| 2026-04-25 18:33 | -1.61386 | -79.53019 | 13941 ft | 284 kts | 228° |
| 2026-04-25 18:33 | -1.62676 | -79.54522 | 13937 ft | 284 kts | 229° |
| 2026-04-25 18:33 | -1.63952 | -79.56024 | 13931 ft | 284 kts | 229° |
| 2026-04-25 18:34 | -1.64785 | -79.57035 | 13930 ft | 284 kts | 234° |
| 2026-04-25 18:34 | -1.65561 | -79.58835 | 13930 ft | 284 kts | 262° |
| 2026-04-25 18:34 | -1.65461 | -79.60816 | 13927 ft | 284 kts | 288° |
| 2026-04-25 18:34 | -1.64507 | -79.62527 | 13927 ft | 283 kts | 315° |
| 2026-04-25 18:35 | -1.62924 | -79.63638 | 13924 ft | 280 kts | 341° |
| 2026-04-25 18:35 | -1.61025 | -79.63952 | 13927 ft | 277 kts | 7° |
| 2026-04-25 18:35 | -1.59197 | -79.63415 | 13926 ft | 275 kts | 32° |
| 2026-04-25 18:35 | -1.57749 | -79.62189 | 13930 ft | 274 kts | 48° |
| 2026-04-25 18:36 | -1.56472 | -79.60764 | 13931 ft | 275 kts | 50° |
| 2026-04-25 18:36 | -1.55225 | -79.59313 | 13929 ft | 275 kts | 50° |
| 2026-04-25 18:36 | -1.53988 | -79.57858 | 13935 ft | 275 kts | 50° |
| 2026-04-25 18:36 | -1.52766 | -79.56390 | 13929 ft | 275 kts | 56° |
| 2026-04-25 18:37 | -1.52019 | -79.54659 | 13935 ft | 273 kts | 81° |
| 2026-04-25 18:37 | -1.52082 | -79.52779 | 13940 ft | 272 kts | 106° |
| 2026-04-25 18:37 | -1.52938 | -79.51099 | 13942 ft | 273 kts | 130° |
| 2026-04-25 18:37 | -1.54429 | -79.49934 | 13945 ft | 275 kts | 155° |
| 2026-04-25 18:38 | -1.56288 | -79.49510 | 13947 ft | 278 kts | 180° |
| 2026-04-25 18:38 | -1.58252 | -79.49912 | 13950 ft | 306 kts | 204° |
| 2026-04-25 18:38 | -1.60164 | -79.51104 | 13942 ft | 328 kts | 214° |
| 2026-04-25 18:38 | -1.62074 | -79.52436 | 13293 ft | 340 kts | 214° |
| 2026-04-25 18:39 | -1.64028 | -79.53825 | 12540 ft | 349 kts | 215° |
| 2026-04-25 18:39 | -1.66041 | -79.55266 | 11794 ft | 355 kts | 215° |
| 2026-04-25 18:39 | -1.68097 | -79.56733 | 11061 ft | 361 kts | 215° |
| 2026-04-25 18:39 | -1.70155 | -79.58196 | 10390 ft | 364 kts | 215° |
| 2026-04-25 18:40 | -1.72255 | -79.59685 | 9954 ft | 358 kts | 215° |
| 2026-04-25 18:40 | -1.74274 | -79.61110 | 9515 ft | 352 kts | 215° |
| 2026-04-25 18:40 | -1.76267 | -79.62513 | 9059 ft | 347 kts | 215° |
| 2026-04-25 18:40 | -1.78224 | -79.63892 | 8613 ft | 342 kts | 216° |
| 2026-04-25 18:41 | -1.80156 | -79.65252 | 8161 ft | 337 kts | 216° |
| 2026-04-25 18:41 | -1.82118 | -79.66635 | 7728 ft | 333 kts | 216° |
| 2026-04-25 18:41 | -1.83996 | -79.67959 | 7298 ft | 329 kts | 216° |
| 2026-04-25 18:41 | -1.85881 | -79.69289 | 6866 ft | 325 kts | 216° |
| 2026-04-25 18:42 | -1.87719 | -79.70585 | 6447 ft | 322 kts | 216° |
| 2026-04-25 18:42 | -1.88336 | -79.71020 | 6304 ft | 321 kts | 216° |
| 2026-04-25 18:42 | -1.91314 | -79.73118 | 5561 ft | 304 kts | 216° |
| 2026-04-25 18:42 | -1.92995 | -79.74304 | 5133 ft | 289 kts | 216° |
| 2026-04-25 18:43 | -1.94608 | -79.75441 | 4703 ft | 277 kts | 216° |
| 2026-04-25 18:43 | -1.96187 | -79.76555 | 4241 ft | 266 kts | 216° |
| 2026-04-25 18:43 | -1.97671 | -79.77601 | 3816 ft | 256 kts | 216° |
| 2026-04-25 18:43 | -1.99077 | -79.78658 | 3481 ft | 242 kts | 216° |
| 2026-04-25 18:44 | -2.00457 | -79.79555 | 3184 ft | 233 kts | 211° |
| 2026-04-25 18:44 | -2.01838 | -79.80357 | 2893 ft | 227 kts | 210° |
| 2026-04-25 18:44 | -2.03185 | -79.81129 | 2621 ft | 211 kts | 210° |
| 2026-04-25 18:44 | -2.04164 | -79.81692 | 2390 ft | 199 kts | 210° |
| 2026-04-25 18:45 | -2.05353 | -79.82377 | 2132 ft | 185 kts | 210° |
| 2026-04-25 18:45 | -2.06451 | -79.83010 | 1901 ft | 174 kts | 210° |
| 2026-04-25 18:45 | -2.07495 | -79.83612 | 1684 ft | 161 kts | 210° |
| 2026-04-25 18:45 | -2.08461 | -79.84167 | 1432 ft | 156 kts | 209° |
| 2026-04-25 18:46 | -2.09119 | -79.84544 | 1160 ft | 158 kts | 210° |
| 2026-04-25 18:46 | -2.10041 | -79.85077 | 1078 ft | 154 kts | 210° |
| 2026-04-25 18:46 | -2.10982 | -79.85620 | 920 ft | 154 kts | 210° |
| 2026-04-25 18:46 | -2.11945 | -79.86177 | 725 ft | 155 kts | 209° |
| 2026-04-25 18:47 | -2.12883 | -79.86717 | 515 ft | 156 kts | 209° |
| 2026-04-25 18:47 | -2.13824 | -79.87263 | 303 ft | 157 kts | 209° |
| 2026-04-25 18:47 | -2.14772 | -79.87843 | 31 ft | 151 kts | 200° |
| 2026-04-25 18:47 | -2.15581 | -79.88273 | 26 ft | 108 kts | 212° |
| 2026-04-25 18:48 | -2.16156 | -79.88650 | 29 ft | 85 kts | 213° |
| 2026-04-25 18:48 | -2.16608 | -79.88962 | 28 ft | 67 kts | 227° |
| 2026-04-25 18:48 | -2.16756 | -79.89153 | 29 ft | 0 kts | 233° |